createdAt,value
2023-05-12T00:01:26.033Z,55.92
2023-05-12T00:03:53.814Z,55.86
2023-05-12T00:06:20.967Z,55.97
2023-05-12T00:08:47.328Z,57.00
2023-05-12T00:11:13.785Z,57.53
2023-05-12T00:13:40.233Z,57.52
2023-05-12T00:16:06.923Z,57.48
2023-05-12T00:18:33.476Z,56.09
2023-05-12T00:20:59.901Z,56.78
2023-05-12T00:23:26.272Z,57.75
2023-05-12T00:25:52.668Z,58.30
2023-05-12T00:28:20.996Z,58.33
2023-05-12T00:30:47.394Z,58.33
2023-05-12T00:33:13.818Z,58.84
2023-05-12T00:35:40.263Z,58.94
2023-05-12T00:38:06.720Z,58.70
2023-05-12T00:40:33.108Z,58.91
2023-05-12T00:42:59.501Z,58.64
2023-05-12T00:45:26.617Z,58.72
2023-05-12T00:47:53.500Z,59.48
2023-05-12T00:50:21.135Z,59.13
2023-05-12T00:52:49.323Z,59.56
2023-05-12T00:55:16.377Z,59.24
2023-05-12T00:57:43.632Z,59.07
2023-05-12T01:00:10.675Z,58.88
2023-05-12T01:02:37.232Z,58.74
2023-05-12T01:05:04.216Z,59.75
2023-05-12T01:07:33.116Z,60.36
2023-05-12T01:09:59.907Z,59.62
2023-05-12T01:12:27.224Z,59.81
2023-05-12T01:14:54.974Z,60.25
2023-05-12T01:17:28.106Z,59.92
2023-05-12T01:19:58.639Z,59.83
2023-05-12T01:22:26.331Z,59.79
2023-05-12T01:24:56.987Z,59.63
2023-05-12T01:27:26.503Z,60.14
2023-05-12T01:29:54.529Z,60.48
2023-05-12T01:32:22.095Z,60.32
2023-05-12T01:34:49.600Z,60.99
2023-05-12T01:37:16.060Z,60.73
2023-05-12T01:39:42.737Z,60.92
2023-05-12T01:42:09.108Z,60.45
2023-05-12T01:44:35.528Z,61.19
2023-05-12T01:47:02.021Z,60.42
2023-05-12T01:49:28.975Z,61.25
2023-05-12T01:51:55.748Z,61.00
2023-05-12T01:54:22.214Z,60.68
2023-05-12T01:56:48.606Z,60.98
2023-05-12T01:59:15.387Z,61.64
2023-05-12T02:01:42.088Z,61.89
2023-05-12T02:04:09.117Z,62.02
2023-05-12T02:06:35.866Z,61.38
2023-05-12T02:09:02.661Z,61.60
2023-05-12T02:11:29.040Z,61.37
2023-05-12T02:13:55.408Z,61.75
2023-05-12T02:16:22.000Z,61.88
2023-05-12T02:18:48.788Z,62.31
2023-05-12T02:21:15.282Z,62.22
2023-05-12T02:23:41.715Z,62.17
2023-05-12T02:26:08.178Z,62.54
2023-05-12T02:28:34.850Z,62.61
2023-05-12T02:31:01.200Z,62.53
2023-05-12T02:33:27.532Z,62.41
2023-05-12T02:35:53.912Z,63.01
2023-05-12T02:38:20.406Z,63.53
2023-05-12T02:40:47.511Z,63.70
2023-05-12T02:43:13.939Z,64.03
2023-05-12T02:45:40.416Z,64.39
2023-05-12T02:48:07.237Z,64.54
2023-05-12T02:50:33.688Z,64.72
2023-05-12T02:53:00.030Z,64.53
2023-05-12T02:55:27.089Z,64.56
2023-05-12T02:57:53.613Z,64.39
2023-05-12T03:00:20.105Z,64.35
2023-05-12T03:02:46.795Z,64.24
2023-05-12T03:05:13.306Z,64.69
2023-05-12T03:07:39.731Z,64.08
2023-05-12T03:10:06.631Z,64.30
2023-05-12T03:12:33.016Z,65.33
2023-05-12T03:14:59.360Z,65.10
2023-05-12T03:17:26.015Z,65.06
2023-05-12T03:19:52.544Z,64.68
2023-05-12T03:22:19.028Z,65.50
2023-05-12T03:24:46.357Z,65.66
2023-05-12T03:27:13.041Z,65.85
2023-05-12T03:29:39.490Z,66.62
2023-05-12T03:32:06.378Z,66.42
2023-05-12T03:34:33.064Z,66.80
2023-05-12T03:36:59.724Z,66.72
2023-05-12T03:39:26.164Z,66.86
2023-05-12T03:41:52.533Z,66.91
2023-05-12T03:44:18.940Z,67.43
2023-05-12T03:46:45.642Z,66.91
2023-05-12T03:49:12.550Z,67.28
2023-05-12T03:51:39.262Z,67.43
2023-05-12T03:54:05.846Z,67.31
2023-05-12T03:56:32.275Z,67.30
2023-05-12T03:58:58.905Z,67.39
2023-05-12T04:01:25.474Z,66.73
2023-05-12T04:03:51.955Z,67.39
2023-05-12T04:06:18.335Z,67.00
2023-05-12T04:08:44.706Z,66.74
2023-05-12T04:11:11.150Z,66.71
2023-05-12T04:13:37.635Z,67.27
2023-05-12T04:16:04.445Z,67.93
2023-05-12T04:18:30.924Z,67.48
2023-05-12T04:20:57.872Z,67.65
2023-05-12T04:23:24.377Z,68.23
2023-05-12T04:25:50.858Z,67.93
2023-05-12T04:28:17.240Z,67.62
2023-05-12T04:30:43.617Z,67.92
2023-05-12T04:33:10.318Z,67.76
2023-05-12T04:35:37.055Z,67.67
2023-05-12T04:38:03.522Z,67.76
2023-05-12T04:40:32.669Z,67.74
2023-05-12T04:43:00.719Z,67.13
2023-05-12T04:45:27.107Z,66.44
2023-05-12T04:47:53.524Z,66.09
2023-05-12T04:50:20.070Z,65.74
2023-05-12T04:52:46.533Z,65.81
2023-05-12T04:55:12.886Z,66.37
2023-05-12T04:57:41.235Z,66.16
2023-05-12T05:00:09.052Z,66.19
2023-05-12T05:02:35.718Z,66.45
2023-05-12T05:05:02.218Z,65.97
2023-05-12T05:07:28.781Z,65.94
2023-05-12T05:09:55.216Z,65.98
2023-05-12T05:12:21.569Z,66.07
2023-05-12T05:14:48.067Z,66.75
2023-05-12T05:17:14.543Z,66.73
2023-05-12T05:19:54.864Z,66.00
2023-05-12T05:22:25.268Z,65.35
2023-05-12T05:24:51.974Z,64.99
2023-05-12T05:27:18.629Z,64.41
2023-05-12T05:29:45.019Z,63.53
2023-05-12T05:32:11.453Z,62.42
2023-05-12T05:34:38.205Z,62.07
2023-05-12T05:37:04.795Z,62.09
2023-05-12T05:39:31.460Z,61.46
2023-05-12T05:41:58.082Z,61.45
2023-05-12T05:44:25.121Z,61.32
2023-05-12T05:46:51.836Z,61.40
2023-05-12T05:49:18.774Z,60.62
2023-05-12T05:51:45.253Z,61.21
2023-05-12T05:54:12.113Z,61.37
2023-05-12T05:56:38.573Z,61.47
2023-05-12T05:59:05.287Z,60.77
2023-05-12T06:01:32.620Z,60.40
2023-05-12T06:03:59.202Z,60.09
2023-05-12T06:06:26.020Z,60.67
2023-05-12T06:08:52.532Z,60.77
2023-05-12T06:11:18.895Z,60.35
2023-05-12T06:13:45.348Z,60.25
2023-05-12T06:16:11.769Z,60.13
2023-05-12T06:18:38.619Z,59.14
2023-05-12T06:21:06.151Z,59.79
2023-05-12T06:23:35.079Z,59.04
2023-05-12T06:26:01.470Z,59.19
2023-05-12T06:28:27.848Z,59.42
2023-05-12T06:30:54.201Z,58.47
2023-05-12T06:33:20.810Z,58.40
2023-05-12T06:35:47.187Z,57.92
2023-05-12T06:38:13.691Z,57.73
2023-05-12T06:40:40.206Z,57.70
2023-05-12T06:43:07.298Z,56.95
2023-05-12T06:45:33.778Z,56.90
2023-05-12T06:48:01.503Z,56.46
2023-05-12T06:50:27.949Z,56.00
2023-05-12T06:52:54.314Z,55.49
2023-05-12T06:55:21.186Z,55.21
2023-05-12T06:57:47.798Z,54.21
2023-05-12T07:00:14.632Z,54.40
2023-05-12T07:02:41.247Z,54.37
2023-05-12T07:05:08.138Z,54.64
2023-05-12T07:07:35.934Z,54.55
2023-05-12T07:10:02.381Z,54.90
2023-05-12T07:12:28.790Z,54.43
2023-05-12T07:14:55.313Z,54.18
2023-05-12T07:17:21.821Z,53.70
2023-05-12T07:19:48.326Z,52.78
2023-05-12T07:22:14.800Z,52.54
2023-05-12T07:24:41.613Z,52.75
2023-05-12T07:27:08.227Z,52.83
2023-05-12T07:29:34.888Z,52.50
2023-05-12T07:32:01.425Z,51.30
2023-05-12T07:34:27.847Z,50.82
2023-05-12T07:36:54.391Z,51.22
2023-05-12T07:39:23.717Z,50.37
2023-05-12T07:41:51.096Z,49.92
2023-05-12T07:44:17.682Z,49.88
2023-05-12T07:46:44.426Z,49.89
2023-05-12T07:49:10.918Z,50.18
2023-05-12T07:51:37.386Z,49.88
2023-05-12T07:54:04.833Z,49.87
2023-05-12T07:56:31.324Z,49.87
2023-05-12T07:58:57.733Z,49.75
2023-05-12T08:01:24.524Z,49.71
2023-05-12T08:03:51.648Z,49.45
2023-05-12T08:06:18.579Z,49.38
2023-05-12T08:08:45.130Z,48.40
2023-05-12T08:11:12.679Z,47.71
2023-05-12T08:13:40.291Z,48.58
2023-05-12T08:16:06.681Z,48.23
2023-05-12T08:18:33.083Z,48.71
2023-05-12T08:20:59.458Z,48.65
2023-05-12T08:23:26.053Z,48.53
2023-05-12T08:25:52.461Z,48.07
2023-05-12T08:28:18.804Z,47.79
2023-05-12T08:30:45.556Z,47.50
2023-05-12T08:33:12.522Z,47.09
2023-05-12T08:35:39.157Z,47.24
2023-05-12T08:38:05.866Z,46.98
2023-05-12T08:40:38.177Z,47.32
2023-05-12T08:43:04.613Z,46.94
2023-05-12T08:45:31.434Z,46.50
2023-05-12T08:47:59.108Z,47.11
2023-05-12T08:50:27.097Z,47.21
2023-05-12T08:52:53.644Z,47.25
2023-05-12T08:55:20.840Z,46.93
2023-05-12T08:57:48.653Z,46.90
2023-05-12T09:00:16.373Z,47.32
2023-05-12T09:02:52.851Z,47.06
2023-05-12T09:05:21.209Z,45.58
2023-05-12T09:07:49.991Z,45.18
2023-05-12T09:10:32.762Z,45.35
2023-05-12T09:13:15.726Z,45.21
2023-05-12T09:15:45.360Z,45.45
2023-05-12T09:18:11.723Z,44.28
2023-05-12T09:20:38.188Z,43.81
2023-05-12T09:23:19.192Z,42.75
2023-05-12T09:25:48.889Z,43.16
2023-05-12T09:28:15.554Z,43.59
2023-05-12T09:30:42.597Z,43.77
2023-05-12T09:33:11.033Z,42.07
2023-05-12T09:35:45.508Z,41.90
2023-05-12T09:38:14.877Z,41.61
2023-05-12T09:40:42.405Z,41.36
2023-05-12T09:43:09.115Z,41.59
2023-05-12T09:45:36.764Z,41.65
2023-05-12T09:48:13.749Z,40.82
2023-05-12T09:50:51.341Z,40.84
2023-05-12T09:53:19.371Z,40.58
2023-05-12T09:55:47.273Z,40.54
2023-05-12T09:58:16.329Z,40.77
2023-05-12T10:01:09.022Z,40.68
2023-05-12T10:03:32.481Z,41.11
2023-05-12T10:06:02.686Z,40.12
2023-05-12T10:08:51.888Z,39.90
2023-05-12T10:11:19.637Z,39.14
2023-05-12T10:13:46.806Z,38.69
2023-05-12T10:16:14.176Z,38.73
2023-05-12T10:18:43.321Z,38.50
2023-05-12T10:21:11.983Z,38.88
2023-05-12T10:23:41.384Z,37.77
2023-05-12T10:26:07.835Z,37.71
2023-05-12T10:28:34.201Z,37.13
2023-05-12T10:31:00.811Z,37.64
2023-05-12T10:33:27.685Z,37.42
2023-05-12T10:35:54.230Z,37.71
2023-05-12T10:38:20.627Z,37.25
2023-05-12T10:40:59.780Z,37.01
2023-05-12T10:43:29.009Z,36.95
2023-05-12T10:46:16.406Z,38.10
2023-05-12T10:48:51.543Z,37.72
2023-05-12T10:51:23.195Z,37.50
2023-05-12T10:53:59.016Z,38.09
2023-05-12T10:56:40.007Z,37.31
2023-05-12T10:59:18.629Z,36.89
2023-05-12T11:01:59.049Z,37.25
2023-05-12T11:04:50.397Z,37.50
2023-05-12T11:07:22.216Z,37.65
2023-05-12T11:09:56.940Z,37.43
2023-05-12T11:12:26.742Z,38.32
2023-05-12T11:14:53.527Z,38.07
2023-05-12T11:17:19.948Z,37.15
2023-05-12T11:19:48.317Z,37.04
2023-05-12T11:22:18.435Z,36.96
2023-05-12T11:24:44.792Z,37.37
2023-05-12T11:27:18.559Z,37.72
2023-05-12T11:29:55.102Z,37.77
2023-05-12T11:32:21.485Z,37.97
2023-05-12T11:34:47.839Z,38.41
2023-05-12T11:37:14.373Z,38.90
2023-05-12T11:39:41.809Z,38.89
2023-05-12T11:42:13.427Z,38.69
2023-05-12T11:44:50.593Z,39.11
2023-05-12T11:47:19.390Z,40.01
2023-05-12T11:49:54.967Z,41.30
2023-05-12T11:52:23.042Z,41.98
2023-05-12T11:54:57.355Z,41.88
2023-05-12T11:57:32.550Z,42.22
2023-05-12T12:00:07.618Z,42.85
2023-05-12T12:02:35.757Z,42.79
2023-05-12T12:05:02.593Z,42.56
2023-05-12T12:07:34.256Z,42.18
2023-05-12T12:10:14.389Z,42.02
2023-05-12T12:12:41.974Z,41.52
2023-05-12T12:15:09.570Z,41.86
2023-05-12T12:17:36.124Z,41.25
2023-05-12T12:20:02.999Z,40.19
2023-05-12T12:22:34.024Z,40.47
2023-05-12T12:25:01.254Z,40.31
2023-05-12T12:27:27.608Z,40.37
2023-05-12T12:29:53.969Z,40.23
2023-05-12T12:32:20.424Z,40.41
2023-05-12T12:34:48.451Z,40.71
2023-05-12T12:37:14.836Z,40.50
2023-05-12T12:39:41.419Z,40.27
2023-05-12T12:42:08.291Z,41.76
2023-05-12T12:44:34.653Z,41.93
2023-05-12T12:47:01.235Z,42.06
2023-05-12T12:49:27.719Z,41.77
2023-05-12T12:51:55.233Z,41.65
2023-05-12T12:54:21.771Z,41.76
2023-05-12T12:56:48.179Z,41.90
2023-05-12T12:59:14.948Z,41.38
2023-05-12T13:01:41.435Z,40.63
2023-05-12T13:04:07.835Z,39.94
2023-05-12T13:06:34.714Z,39.79
2023-05-12T13:09:01.535Z,39.85
2023-05-12T13:11:28.250Z,39.28
2023-05-12T13:13:54.610Z,39.16
2023-05-12T13:16:21.076Z,39.63
2023-05-12T13:18:47.551Z,39.82
2023-05-12T13:21:14.113Z,39.79
2023-05-12T13:23:40.558Z,39.49
2023-05-12T13:26:06.941Z,39.54
2023-05-12T13:28:33.297Z,39.11
2023-05-12T13:31:00.003Z,40.02
2023-05-12T13:33:26.403Z,40.09
2023-05-12T13:35:52.899Z,39.69
2023-05-12T13:38:19.813Z,39.73
2023-05-12T13:40:46.360Z,40.36
2023-05-12T13:43:12.984Z,39.54
2023-05-12T13:45:39.436Z,36.41
2023-05-12T13:48:06.212Z,36.34
2023-05-12T13:50:33.745Z,36.71
2023-05-12T13:53:00.434Z,38.17
2023-05-12T13:55:27.201Z,38.48
2023-05-12T13:57:53.770Z,39.18
2023-05-12T14:00:20.457Z,39.08
2023-05-12T14:02:46.902Z,39.03
2023-05-12T14:05:13.490Z,39.76
2023-05-12T14:07:40.208Z,39.43
2023-05-12T14:10:07.059Z,39.60
2023-05-12T14:12:33.552Z,39.60
2023-05-12T14:15:15.726Z,40.03
2023-05-12T14:17:46.434Z,40.10
2023-05-12T14:20:13.025Z,39.92
2023-05-12T14:22:39.465Z,39.93
2023-05-12T14:25:06.252Z,39.93
2023-05-12T14:27:32.634Z,40.45
2023-05-12T14:29:59.030Z,40.74
2023-05-12T14:32:25.495Z,41.12
2023-05-12T14:34:51.944Z,41.75
2023-05-12T14:37:18.414Z,43.47
2023-05-12T14:39:44.883Z,44.77
2023-05-12T14:42:11.336Z,45.39
2023-05-12T14:44:37.738Z,45.44
2023-05-12T14:47:04.669Z,42.59
2023-05-12T14:49:31.699Z,40.84
2023-05-12T14:51:58.098Z,40.71
2023-05-12T14:54:25.701Z,41.11
2023-05-12T14:56:52.843Z,41.95
2023-05-12T14:59:19.374Z,42.49
2023-05-12T15:01:46.050Z,42.93
2023-05-12T15:04:13.189Z,43.38
2023-05-12T15:06:39.978Z,43.22
2023-05-12T15:09:07.221Z,43.00
2023-05-12T15:11:33.684Z,42.08
2023-05-12T15:14:00.379Z,42.07
2023-05-12T15:16:28.073Z,41.56
2023-05-12T15:18:54.711Z,41.56
2023-05-12T15:21:21.276Z,42.10
2023-05-12T15:23:47.916Z,42.27
2023-05-12T15:26:31.319Z,42.37
2023-05-12T15:28:59.747Z,42.39
2023-05-12T15:31:28.852Z,42.01
2023-05-12T15:33:56.567Z,41.44
2023-05-12T15:36:22.957Z,41.81
2023-05-12T15:38:49.349Z,41.34
2023-05-12T15:41:15.730Z,41.01
2023-05-12T15:43:42.430Z,40.53
2023-05-12T15:46:10.898Z,40.58
2023-05-12T15:48:37.615Z,40.93
2023-05-12T15:51:04.221Z,41.10
2023-05-12T15:53:30.989Z,41.11
2023-05-12T15:56:04.753Z,41.20
2023-05-12T15:58:31.480Z,41.66
2023-05-12T16:00:58.015Z,42.27
2023-05-12T16:03:24.560Z,41.39
2023-05-12T16:05:51.239Z,41.51
2023-05-12T16:08:17.697Z,41.33
2023-05-12T16:10:44.302Z,41.65
2023-05-12T16:13:10.784Z,42.10
2023-05-12T16:15:37.290Z,41.92
2023-05-12T16:18:03.912Z,42.37
2023-05-12T16:20:30.404Z,42.50
2023-05-12T16:22:56.825Z,42.40
2023-05-12T16:25:23.332Z,42.76
2023-05-12T16:27:50.109Z,42.19
2023-05-12T16:30:19.102Z,42.58
2023-05-12T16:32:47.393Z,42.74
2023-05-12T16:35:13.987Z,42.71
2023-05-12T16:37:40.435Z,41.83
2023-05-12T16:40:07.702Z,42.41
2023-05-12T16:42:35.349Z,42.66
2023-05-12T16:45:01.752Z,42.54
2023-05-12T16:47:29.482Z,42.63
2023-05-12T16:49:57.595Z,43.46
2023-05-12T16:52:24.005Z,44.07
2023-05-12T16:54:50.727Z,44.86
2023-05-12T16:57:18.251Z,46.22
2023-05-12T16:59:45.193Z,47.38
2023-05-12T17:02:11.802Z,48.09
2023-05-12T17:04:38.243Z,49.33
2023-05-12T17:07:04.745Z,49.61
2023-05-12T17:09:31.109Z,50.53
2023-05-12T17:11:57.461Z,50.82
2023-05-12T17:14:23.792Z,51.05
2023-05-12T17:16:50.164Z,50.73
2023-05-12T17:19:16.562Z,50.79
2023-05-12T17:21:42.939Z,50.63
2023-05-12T17:24:09.516Z,50.30
2023-05-12T17:26:36.047Z,50.11
2023-05-12T17:29:02.517Z,49.86
2023-05-12T17:31:29.146Z,49.61
2023-05-12T17:33:55.626Z,50.02
2023-05-12T17:36:22.141Z,49.03
2023-05-12T17:38:50.018Z,46.78
2023-05-12T17:41:16.501Z,44.11
2023-05-12T17:43:42.988Z,43.99
2023-05-12T17:46:09.743Z,43.83
2023-05-12T17:48:38.244Z,43.34
2023-05-12T17:51:04.937Z,43.54
2023-05-12T17:53:32.272Z,43.80
2023-05-12T17:55:59.794Z,43.91
2023-05-12T17:58:26.301Z,43.65
2023-05-12T18:00:52.852Z,43.90
2023-05-12T18:03:23.556Z,43.57
2023-05-12T18:05:51.977Z,44.60
2023-05-12T18:08:19.003Z,44.78
2023-05-12T18:10:45.955Z,45.06
2023-05-12T18:13:13.043Z,45.30
2023-05-12T18:15:39.434Z,45.18
2023-05-12T18:18:06.092Z,45.83
2023-05-12T18:20:32.506Z,46.50
2023-05-12T18:22:58.953Z,46.63
2023-05-12T18:25:25.423Z,46.69
2023-05-12T18:27:52.684Z,48.11
2023-05-12T18:30:19.237Z,48.56
2023-05-12T18:32:45.627Z,49.64
2023-05-12T18:35:12.268Z,50.02
2023-05-12T18:37:38.648Z,50.18
2023-05-12T18:40:06.820Z,50.05
2023-05-12T18:42:34.258Z,50.53
2023-05-12T18:45:00.727Z,50.37
2023-05-12T18:47:27.257Z,50.96
2023-05-12T18:49:53.852Z,51.74
2023-05-12T18:52:21.237Z,51.50
2023-05-12T18:54:49.407Z,52.07
2023-05-12T18:57:16.397Z,51.83
2023-05-12T18:59:42.859Z,51.73
2023-05-12T19:02:09.290Z,52.33
2023-05-12T19:04:35.888Z,52.96
2023-05-12T19:07:02.427Z,53.37
2023-05-12T19:09:29.067Z,53.69
2023-05-12T19:11:55.585Z,54.20
2023-05-12T19:14:22.496Z,53.78
2023-05-12T19:16:48.942Z,53.84
2023-05-12T19:19:15.474Z,54.14
2023-05-12T19:21:41.849Z,55.17
2023-05-12T19:24:10.385Z,55.01
2023-05-12T19:26:37.254Z,55.10
2023-05-12T19:29:04.402Z,54.70
2023-05-12T19:31:30.961Z,55.20
2023-05-12T19:33:57.377Z,54.81
2023-05-12T19:36:23.777Z,55.41
2023-05-12T19:38:50.159Z,55.68
2023-05-12T19:41:16.540Z,56.14
2023-05-12T19:43:42.904Z,56.42
2023-05-12T19:46:09.284Z,56.69
2023-05-12T19:48:35.966Z,57.23
2023-05-12T19:51:02.397Z,57.75
2023-05-12T19:53:28.840Z,58.34
2023-05-12T19:55:55.298Z,58.59
2023-05-12T19:58:21.652Z,58.65
2023-05-12T20:00:48.658Z,59.02
2023-05-12T20:03:15.380Z,59.02
2023-05-12T20:05:42.261Z,59.88
2023-05-12T20:08:08.704Z,60.11
2023-05-12T20:10:35.201Z,59.85
2023-05-12T20:13:03.733Z,59.85
2023-05-12T20:15:31.284Z,60.15
2023-05-12T20:17:58.125Z,59.26
2023-05-12T20:20:24.682Z,59.25
2023-05-12T20:22:51.461Z,60.21
2023-05-12T20:25:17.986Z,60.48
2023-05-12T20:27:45.053Z,60.50
2023-05-12T20:30:12.637Z,61.16
2023-05-12T20:32:39.257Z,62.63
2023-05-12T20:35:09.211Z,62.15
2023-05-12T20:37:35.651Z,62.06
2023-05-12T20:40:02.153Z,61.73
2023-05-12T20:42:28.745Z,62.72
2023-05-12T20:44:55.297Z,63.53
2023-05-12T20:47:21.748Z,63.71
2023-05-12T20:49:48.480Z,64.38
2023-05-12T20:52:15.232Z,65.15
2023-05-12T20:54:41.709Z,63.73
2023-05-12T20:57:10.254Z,64.62
2023-05-12T20:59:36.632Z,64.64
2023-05-12T21:02:06.340Z,65.05
2023-05-12T21:04:33.029Z,64.42
2023-05-12T21:06:59.374Z,64.40
2023-05-12T21:09:25.808Z,64.69
2023-05-12T21:11:52.177Z,66.62
2023-05-12T21:14:18.671Z,66.59
2023-05-12T21:16:45.078Z,67.69
2023-05-12T21:19:11.876Z,67.93
2023-05-12T21:21:38.358Z,67.88
2023-05-12T21:24:04.901Z,67.61
2023-05-12T21:26:31.250Z,67.67
2023-05-12T21:28:57.727Z,68.29
2023-05-12T21:31:24.292Z,68.37
2023-05-12T21:33:50.749Z,68.02
2023-05-12T21:36:17.106Z,67.65
2023-05-12T21:38:43.560Z,68.60
2023-05-12T21:41:10.026Z,68.76
2023-05-12T21:43:36.718Z,69.34
2023-05-12T21:46:04.543Z,69.27
2023-05-12T21:48:32.097Z,69.70
2023-05-12T21:51:03.384Z,69.11
2023-05-12T21:53:30.020Z,68.87
2023-05-12T21:55:56.476Z,68.51
2023-05-12T21:58:23.803Z,69.10
2023-05-12T22:00:51.566Z,69.04
2023-05-12T22:03:20.340Z,69.52
2023-05-12T22:05:47.018Z,69.54
2023-05-12T22:08:13.884Z,69.60
2023-05-12T22:10:40.461Z,70.79
2023-05-12T22:13:07.635Z,70.64
2023-05-12T22:15:34.612Z,72.00
2023-05-12T22:18:01.434Z,71.55
2023-05-12T22:20:28.127Z,71.75
2023-05-12T22:22:54.541Z,71.11
2023-05-12T22:25:20.972Z,71.38
2023-05-12T22:27:47.400Z,71.56
2023-05-12T22:30:14.148Z,72.02
2023-05-12T22:32:40.767Z,72.09
2023-05-12T22:35:07.828Z,72.63
2023-05-12T22:37:34.433Z,72.89
2023-05-12T22:40:00.883Z,73.33
2023-05-12T22:42:27.554Z,73.31
2023-05-12T22:44:54.020Z,73.15
2023-05-12T22:47:20.766Z,73.62
2023-05-12T22:49:47.213Z,73.89
2023-05-12T22:52:14.776Z,73.31
2023-05-12T22:54:41.171Z,73.09
2023-05-12T22:57:07.637Z,73.01
2023-05-12T22:59:34.295Z,72.77
2023-05-12T23:02:00.739Z,72.60
2023-05-12T23:04:27.425Z,73.42
2023-05-12T23:06:53.885Z,73.91
2023-05-12T23:09:20.334Z,73.82
2023-05-12T23:11:46.778Z,74.29
2023-05-12T23:14:13.265Z,74.55
2023-05-12T23:16:39.738Z,74.50
2023-05-12T23:19:06.143Z,73.96
2023-05-12T23:21:32.914Z,74.35
2023-05-12T23:23:59.449Z,73.87
2023-05-12T23:26:25.988Z,74.08
2023-05-12T23:28:52.412Z,74.36
2023-05-12T23:31:18.804Z,74.19
2023-05-12T23:33:45.333Z,74.12
2023-05-12T23:36:13.409Z,74.20
2023-05-12T23:38:39.941Z,74.21
2023-05-12T23:41:06.417Z,73.90
2023-05-12T23:43:32.919Z,73.71
2023-05-12T23:45:59.765Z,73.62
2023-05-12T23:48:26.553Z,73.97
2023-05-12T23:50:53.075Z,74.21
2023-05-12T23:53:19.760Z,74.81
2023-05-12T23:55:46.192Z,74.48
2023-05-12T23:58:12.635Z,74.77
